Keene, Nebraska
Current Conditions -  °F | °C
As of 8:15 AM on Saturday 25 Oct 2014 (Local Time) from KHDE Reporting Station
Clear Clear  
Wind Chill: 43°   Ceiling: Unl
Heat Index: 43°   Visibility: 10mi
Dew Point: 40°   Wind: 0mph
Humidity: 91%   Direction: NA
Pressure: 30.11"   Gusts: NA
Location:  40.5474°N, 99.1227°W
Report Text: KHDE 251315Z AUTO 00000KT 10SM CLR 06/05 A3011 RMK AO2 T00600046
Loading
Personal Weather Stations






























Interactive Weather Map
Tropical Storm Tracking
New forecast layout! Learn more

10-Day Weather Forecast

Advertisements
Track Severe Weather on mobile